createdAt,value
2024-03-15T00:01:06.884Z,54.67
2024-03-15T00:03:33.948Z,52.92
2024-03-15T00:06:01.046Z,54.42
2024-03-15T00:08:28.057Z,51.40
2024-03-15T00:10:55.477Z,54.00
2024-03-15T00:13:23.913Z,54.42
2024-03-15T00:15:53.574Z,51.78
2024-03-15T00:18:20.419Z,56.10
2024-03-15T00:20:47.371Z,54.15
2024-03-15T00:23:14.235Z,57.75
2024-03-15T00:25:42.681Z,52.45
2024-03-15T00:28:09.733Z,52.70
2024-03-15T00:30:36.642Z,51.65
2024-03-15T00:33:04.198Z,51.40
2024-03-15T00:35:31.334Z,54.85
2024-03-15T00:37:58.249Z,56.58
2024-03-15T00:40:25.112Z,55.40
2024-03-15T00:45:18.787Z,54.63
2024-03-15T00:50:13.111Z,51.95
2024-03-15T00:52:40.337Z,53.65
2024-03-15T00:55:07.513Z,54.05
2024-03-15T00:57:34.334Z,56.03
2024-03-15T01:00:02.317Z,53.38
2024-03-15T01:02:31.178Z,51.72
2024-03-15T01:04:58.562Z,56.67
2024-03-15T01:07:25.356Z,55.17
2024-03-15T01:12:19.043Z,54.78
2024-03-15T01:14:46.661Z,52.08
2024-03-15T01:17:13.567Z,53.45
2024-03-15T01:22:08.969Z,51.30
2024-03-15T01:24:35.870Z,56.70
2024-03-15T01:27:02.687Z,53.38
2024-03-15T01:31:58.016Z,52.30
2024-03-15T01:34:24.977Z,54.33
2024-03-15T01:39:19.692Z,54.00
2024-03-15T01:41:46.651Z,61.30
2024-03-15T01:44:14.849Z,54.55
2024-03-15T01:46:42.202Z,55.78
2024-03-15T01:49:09.943Z,60.17
2024-03-15T01:51:38.190Z,57.58
2024-03-15T01:54:05.525Z,56.42
2024-03-15T01:56:32.491Z,56.95
2024-03-15T01:59:00.451Z,55.42
2024-03-15T02:01:27.877Z,53.83
2024-03-15T02:03:57.690Z,53.00
2024-03-15T02:06:24.886Z,59.40
2024-03-15T02:08:56.359Z,58.83
2024-03-15T02:11:23.542Z,57.13
2024-03-15T02:13:51.247Z,56.05
2024-03-15T02:16:18.396Z,59.35
2024-03-15T02:18:45.580Z,60.00
2024-03-15T02:23:54.584Z,58.08
2024-03-15T02:28:49.653Z,59.13
2024-03-15T02:31:17.900Z,59.05
2024-03-15T02:33:46.073Z,60.00
2024-03-15T02:36:13.093Z,58.85
2024-03-15T02:41:10.797Z,54.60
2024-03-15T02:43:37.717Z,59.03
2024-03-15T02:46:04.541Z,64.18
2024-03-15T02:51:00.895Z,60.70
2024-03-15T02:53:28.047Z,62.65
2024-03-15T02:55:54.815Z,61.97
2024-03-15T02:58:21.598Z,64.20
2024-03-15T03:03:15.412Z,61.63
2024-03-15T03:08:08.957Z,65.13
2024-03-15T03:10:35.789Z,62.90
2024-03-15T03:15:30.496Z,59.38
2024-03-15T03:17:57.426Z,62.03
2024-03-15T03:22:55.040Z,66.55
2024-03-15T03:25:22.315Z,58.92
2024-03-15T03:27:49.131Z,63.67
2024-03-15T03:30:16.372Z,65.85
2024-03-15T03:32:43.387Z,65.15
2024-03-15T03:35:10.721Z,60.53
2024-03-15T03:37:38.303Z,61.40
2024-03-15T03:40:10.900Z,61.28
2024-03-15T03:42:37.732Z,61.65
2024-03-15T03:47:50.730Z,60.28
2024-03-15T03:50:20.866Z,60.22
2024-03-15T03:52:48.347Z,61.03
2024-03-15T03:55:15.614Z,59.42
2024-03-15T03:57:45.653Z,59.33
2024-03-15T04:00:16.412Z,64.38
2024-03-15T04:02:45.052Z,54.78
2024-03-15T04:05:16.061Z,55.33
2024-03-15T04:07:46.543Z,58.42
2024-03-15T04:10:15.702Z,58.53
2024-03-15T04:12:47.219Z,59.15
2024-03-15T04:15:25.283Z,59.53
2024-03-15T04:17:59.112Z,58.28
2024-03-15T04:20:27.515Z,57.53
2024-03-15T04:22:54.584Z,55.42
2024-03-15T04:25:21.808Z,60.22
2024-03-15T04:27:48.780Z,58.33
2024-03-15T04:30:17.237Z,58.63
2024-03-15T04:32:48.210Z,58.28
2024-03-15T04:35:17.592Z,58.15
2024-03-15T04:37:45.520Z,57.55
2024-03-15T04:40:12.565Z,62.58
2024-03-15T04:42:39.514Z,56.33
2024-03-15T04:45:10.766Z,54.55
2024-03-15T04:47:39.462Z,55.65
2024-03-15T04:50:08.195Z,62.03
2024-03-15T04:52:35.036Z,63.53
2024-03-15T04:55:02.332Z,59.53
2024-03-15T04:57:29.309Z,61.30
2024-03-15T05:02:22.922Z,59.55
2024-03-15T05:04:50.614Z,60.08
2024-03-15T05:07:17.548Z,59.03
2024-03-15T05:12:11.341Z,61.97
2024-03-15T05:14:38.475Z,62.08
2024-03-15T05:19:38.426Z,61.80
2024-03-15T05:22:06.822Z,62.33
2024-03-15T05:24:33.783Z,62.25
2024-03-15T05:29:28.967Z,59.15
2024-03-15T05:31:55.786Z,57.60
2024-03-15T05:34:22.634Z,63.25
2024-03-15T05:36:49.557Z,60.65
2024-03-15T05:41:43.511Z,62.65
2024-03-15T05:44:11.216Z,58.78
2024-03-15T05:46:38.160Z,60.85
2024-03-15T05:51:34.047Z,59.20
2024-03-15T05:54:01.462Z,60.85
2024-03-15T05:56:28.363Z,62.55
2024-03-15T06:01:22.005Z,59.88
2024-03-15T06:03:49.003Z,64.75
2024-03-15T06:06:19.109Z,61.85
2024-03-15T06:08:45.954Z,65.60
2024-03-15T06:11:13.638Z,60.22
2024-03-15T06:13:40.452Z,60.92
2024-03-15T06:16:08.290Z,61.08
2024-03-15T06:18:35.064Z,64.45
2024-03-15T06:21:02.179Z,63.75
2024-03-15T06:23:29.403Z,59.88
2024-03-15T06:25:56.255Z,60.42
2024-03-15T06:30:55.174Z,66.13
2024-03-15T06:33:29.957Z,62.80
2024-03-15T06:35:58.360Z,63.75
2024-03-15T06:38:43.922Z,61.78
2024-03-15T06:41:23.029Z,61.50
2024-03-15T06:44:08.872Z,63.40
2024-03-15T06:46:54.370Z,60.75
2024-03-15T06:49:34.952Z,64.30
2024-03-15T06:52:20.220Z,64.63
2024-03-15T06:54:47.025Z,64.35
2024-03-15T06:59:42.711Z,64.65
2024-03-15T07:02:09.970Z,66.22
2024-03-15T07:04:36.736Z,66.18
2024-03-15T07:07:03.484Z,62.22
2024-03-15T07:09:30.322Z,65.35
2024-03-15T07:14:26.079Z,73.13
2024-03-15T07:16:52.890Z,71.40
2024-03-15T07:21:50.506Z,69.88
2024-03-15T07:24:17.464Z,70.50
2024-03-15T07:26:44.236Z,64.85
2024-03-15T07:29:11.118Z,70.18
2024-03-15T07:34:06.744Z,70.05
2024-03-15T07:36:33.932Z,105.40
2024-03-15T07:39:01.242Z,69.57
2024-03-15T07:41:33.509Z,75.47
2024-03-15T07:44:01.260Z,66.00
2024-03-15T07:46:28.601Z,71.97
2024-03-15T07:48:55.499Z,78.30
2024-03-15T07:51:25.028Z,67.28
2024-03-15T07:53:52.118Z,76.85
2024-03-15T07:56:20.292Z,71.72
2024-03-15T07:58:48.112Z,67.65
2024-03-15T08:01:15.137Z,68.68
2024-03-15T08:03:42.811Z,70.82
2024-03-15T08:06:11.229Z,70.78
2024-03-15T08:08:38.169Z,69.10
2024-03-15T08:11:08.271Z,66.55
2024-03-15T08:13:35.528Z,69.78
2024-03-15T08:16:19.927Z,66.28
2024-03-15T08:18:48.835Z,66.28
2024-03-15T08:21:16.717Z,71.15
2024-03-15T08:23:46.488Z,67.07
2024-03-15T08:26:13.629Z,69.82
2024-03-15T08:28:43.612Z,66.10
2024-03-15T08:31:11.306Z,68.90
2024-03-15T08:33:38.538Z,67.38
2024-03-15T08:36:05.731Z,64.80
2024-03-15T08:38:32.514Z,68.70
2024-03-15T08:40:59.374Z,72.75
2024-03-15T08:43:26.180Z,65.93
2024-03-15T08:45:52.961Z,68.45
2024-03-15T08:48:20.033Z,66.70
2024-03-15T08:50:49.626Z,69.72
2024-03-15T08:53:16.412Z,68.78
2024-03-15T08:58:11.530Z,67.47
2024-03-15T09:00:41.261Z,67.65
2024-03-15T09:03:10.511Z,68.80
2024-03-15T09:05:39.859Z,72.40
2024-03-15T09:08:10.148Z,72.97
2024-03-15T09:10:36.935Z,73.55
2024-03-15T09:15:30.691Z,67.72
2024-03-15T09:18:00.931Z,69.82
2024-03-15T09:20:40.247Z,69.65
2024-03-15T09:23:07.708Z,69.35
2024-03-15T09:25:34.638Z,66.35
2024-03-15T09:28:01.867Z,68.18
2024-03-15T09:30:41.898Z,71.05
2024-03-15T09:33:13.542Z,75.95
2024-03-15T09:35:45.714Z,70.55
2024-03-15T09:38:16.580Z,68.25
2024-03-15T09:40:44.091Z,69.35
2024-03-15T09:43:16.965Z,71.38
2024-03-15T09:45:44.523Z,68.03
2024-03-15T09:48:13.251Z,67.57
2024-03-15T09:50:41.708Z,69.25
2024-03-15T09:53:10.626Z,67.78
2024-03-15T09:55:39.712Z,69.00
2024-03-15T09:58:08.695Z,67.82
2024-03-15T10:00:36.854Z,66.35
2024-03-15T10:03:05.842Z,67.60
2024-03-15T10:05:33.376Z,71.18
2024-03-15T10:08:00.180Z,66.05
2024-03-15T10:10:27.607Z,66.78
2024-03-15T10:12:56.252Z,68.20
2024-03-15T10:15:25.182Z,65.05
2024-03-15T10:17:54.031Z,62.83
2024-03-15T10:20:24.208Z,65.47
2024-03-15T10:22:55.975Z,64.13
2024-03-15T10:25:26.172Z,71.35
2024-03-15T10:27:54.989Z,62.38
2024-03-15T10:30:33.035Z,68.32
2024-03-15T10:33:00.111Z,66.38
2024-03-15T10:35:28.977Z,60.75
2024-03-15T10:37:56.772Z,65.45
2024-03-15T10:40:27.744Z,57.60
2024-03-15T10:42:58.207Z,60.85
2024-03-15T10:45:26.173Z,59.70
2024-03-15T10:47:55.193Z,60.05
2024-03-15T10:50:23.966Z,46.90
2024-03-15T10:52:53.812Z,44.03
2024-03-15T10:55:27.898Z,49.65
2024-03-15T10:58:06.958Z,51.53
2024-03-15T11:00:34.459Z,46.40
2024-03-15T11:03:26.398Z,51.08
2024-03-15T11:05:53.606Z,51.78
2024-03-15T11:08:25.663Z,51.92
2024-03-15T11:10:57.662Z,51.10
2024-03-15T11:13:25.205Z,51.78
2024-03-15T11:15:54.064Z,46.85
2024-03-15T11:18:21.358Z,46.28
2024-03-15T11:20:58.109Z,35.90
2024-03-15T11:23:29.171Z,32.65
2024-03-15T11:26:16.210Z,25.95
2024-03-15T11:28:43.295Z,31.70
2024-03-15T11:31:23.684Z,34.88
2024-03-15T11:33:55.257Z,30.52
2024-03-15T11:36:22.366Z,32.10
2024-03-15T11:38:51.153Z,25.27
2024-03-15T11:41:21.972Z,26.77
2024-03-15T11:43:54.036Z,23.08
2024-03-15T11:46:20.938Z,21.98
2024-03-15T11:48:47.856Z,19.75
2024-03-15T11:51:15.266Z,21.67
2024-03-15T11:53:42.576Z,21.90
2024-03-15T11:56:09.735Z,20.33
2024-03-15T11:58:43.927Z,19.92
2024-03-15T12:01:11.845Z,19.65
2024-03-15T12:03:39.725Z,19.48
2024-03-15T12:06:08.687Z,21.52
2024-03-15T12:08:36.069Z,20.75
2024-03-15T12:11:03.038Z,19.70
2024-03-15T12:13:30.296Z,18.58
2024-03-15T12:15:59.302Z,17.80
2024-03-15T12:18:27.571Z,14.30
2024-03-15T12:20:54.492Z,16.67
2024-03-15T12:23:22.973Z,14.68
2024-03-15T12:25:51.537Z,14.82
2024-03-15T12:28:19.977Z,16.23
2024-03-15T12:30:48.383Z,15.60
2024-03-15T12:33:15.511Z,20.42
2024-03-15T12:35:44.795Z,13.93
2024-03-15T12:38:19.753Z,14.75
2024-03-15T12:40:46.907Z,16.73
2024-03-15T12:43:13.921Z,18.38
2024-03-15T12:45:42.936Z,15.57
2024-03-15T12:48:13.985Z,14.13
2024-03-15T12:50:41.980Z,18.70
2024-03-15T12:53:14.858Z,15.13
2024-03-15T12:55:42.257Z,18.13
2024-03-15T12:58:09.537Z,19.45
2024-03-15T13:00:36.671Z,13.55
2024-03-15T13:03:06.788Z,13.52
2024-03-15T13:05:34.715Z,18.45
2024-03-15T13:08:02.494Z,13.77
2024-03-15T13:10:30.141Z,11.50
2024-03-15T13:12:58.111Z,9.50
2024-03-15T13:15:25.446Z,11.07
2024-03-15T13:17:54.369Z,7.32
2024-03-15T13:20:23.405Z,11.80
2024-03-15T13:22:56.838Z,11.68
2024-03-15T13:27:54.173Z,10.75
2024-03-15T13:30:21.180Z,10.20
2024-03-15T13:32:52.589Z,11.40
2024-03-15T13:35:22.524Z,10.95
2024-03-15T13:37:53.582Z,12.02
2024-03-15T13:40:25.267Z,11.45
2024-03-15T13:42:53.798Z,11.90
2024-03-15T13:45:23.724Z,10.55
2024-03-15T13:48:00.598Z,9.60
2024-03-15T13:50:29.833Z,11.90
2024-03-15T13:52:58.644Z,7.97
2024-03-15T13:55:26.242Z,9.35
2024-03-15T13:57:53.138Z,7.30
2024-03-15T14:00:34.104Z,12.80
2024-03-15T14:03:05.105Z,10.15
2024-03-15T14:05:41.393Z,14.52
2024-03-15T14:08:26.258Z,10.35
2024-03-15T14:10:53.319Z,10.38
2024-03-15T14:13:20.756Z,9.07
2024-03-15T14:15:49.036Z,12.82
2024-03-15T14:18:17.944Z,12.63
2024-03-15T14:20:46.626Z,12.95
2024-03-15T14:23:13.843Z,8.45
2024-03-15T14:25:41.056Z,12.90
2024-03-15T14:28:08.943Z,13.18
2024-03-15T14:30:38.106Z,10.02
2024-03-15T14:33:08.605Z,9.40
2024-03-15T14:35:36.181Z,10.88
2024-03-15T14:38:05.743Z,12.60
2024-03-15T14:40:36.363Z,9.52
2024-03-15T14:43:04.522Z,10.50
2024-03-15T14:45:31.992Z,10.52
2024-03-15T14:48:06.398Z,11.48
2024-03-15T14:50:38.448Z,12.02
2024-03-15T14:53:06.234Z,10.40
2024-03-15T14:55:42.835Z,9.20
2024-03-15T14:58:14.006Z,12.13
2024-03-15T15:00:42.221Z,10.00
2024-03-15T15:03:10.026Z,12.38
2024-03-15T15:05:37.306Z,10.68
2024-03-15T15:08:09.703Z,10.45
2024-03-15T15:10:39.651Z,10.88
2024-03-15T15:13:07.731Z,9.75
2024-03-15T15:15:35.910Z,12.07
2024-03-15T15:18:04.659Z,17.95
2024-03-15T15:20:31.955Z,12.02
2024-03-15T15:23:04.978Z,12.45
2024-03-15T15:25:32.144Z,10.77
2024-03-15T15:27:59.117Z,10.73
2024-03-15T15:30:26.114Z,10.18
2024-03-15T15:32:53.167Z,13.48
2024-03-15T15:35:20.199Z,10.80
2024-03-15T15:37:47.052Z,14.05
2024-03-15T15:40:15.255Z,9.50
2024-03-15T15:42:42.965Z,10.27
2024-03-15T15:45:10.144Z,11.18
2024-03-15T15:47:37.201Z,12.25
2024-03-15T15:50:07.052Z,16.02
2024-03-15T15:52:36.932Z,12.50
2024-03-15T15:55:04.298Z,17.80
2024-03-15T15:57:31.449Z,13.65
2024-03-15T15:59:59.975Z,11.32
2024-03-15T16:02:26.748Z,14.27
2024-03-15T16:04:53.523Z,13.00
2024-03-15T16:07:20.391Z,10.05
2024-03-15T16:09:47.584Z,13.88
2024-03-15T16:12:14.499Z,14.05
2024-03-15T16:14:41.342Z,12.77
2024-03-15T16:17:08.284Z,10.65
2024-03-15T16:19:35.381Z,11.45
2024-03-15T16:22:04.239Z,8.63
2024-03-15T16:24:31.668Z,10.32
2024-03-15T16:26:58.980Z,11.32
2024-03-15T16:29:25.958Z,11.50
2024-03-15T16:31:54.802Z,12.15
2024-03-15T16:34:22.155Z,11.63
2024-03-15T16:36:49.076Z,14.85
2024-03-15T16:39:19.224Z,11.60
2024-03-15T16:41:46.658Z,11.13
2024-03-15T16:44:13.434Z,11.40
2024-03-15T16:46:40.699Z,12.82
2024-03-15T16:49:07.806Z,10.18
2024-03-15T16:51:36.932Z,11.30
2024-03-15T16:54:07.959Z,14.02
2024-03-15T16:56:34.900Z,13.07
2024-03-15T16:59:01.651Z,11.60
2024-03-15T17:01:28.640Z,12.65
2024-03-15T17:03:55.632Z,10.55
2024-03-15T17:06:22.662Z,11.50
2024-03-15T17:08:52.020Z,10.93
2024-03-15T17:11:18.863Z,9.90
2024-03-15T17:13:45.652Z,14.73
2024-03-15T17:16:12.452Z,11.88
2024-03-15T17:18:39.460Z,11.52
2024-03-15T17:21:09.042Z,12.73
2024-03-15T17:23:36.511Z,12.57
2024-03-15T17:26:04.768Z,13.13
2024-03-15T17:28:31.522Z,10.93
2024-03-15T17:30:58.527Z,12.48
2024-03-15T17:33:26.160Z,11.32
2024-03-15T17:35:53.000Z,12.60
2024-03-15T17:38:20.956Z,13.02
2024-03-15T17:40:49.161Z,13.80
2024-03-15T17:43:16.057Z,14.77
2024-03-15T17:45:42.979Z,17.75
2024-03-15T17:48:10.590Z,14.10
2024-03-15T17:50:37.441Z,16.63
2024-03-15T17:53:04.677Z,13.50
2024-03-15T17:55:31.498Z,14.93
2024-03-15T17:57:58.390Z,13.45
2024-03-15T18:00:26.789Z,12.20
2024-03-15T18:02:56.676Z,14.40
2024-03-15T18:05:23.973Z,15.57
2024-03-15T18:07:50.706Z,14.43
2024-03-15T18:10:17.711Z,14.82
2024-03-15T18:12:44.575Z,13.10
2024-03-15T18:15:11.650Z,12.05
2024-03-15T18:17:39.354Z,15.50
2024-03-15T18:20:10.029Z,15.80
2024-03-15T18:22:37.221Z,14.65
2024-03-15T18:25:05.640Z,12.43
2024-03-15T18:27:34.583Z,12.70
2024-03-15T18:30:01.718Z,11.45
2024-03-15T18:32:29.394Z,12.82
2024-03-15T18:34:56.272Z,15.05
2024-03-15T18:37:23.005Z,12.70
2024-03-15T18:42:20.250Z,13.63
2024-03-15T18:44:47.125Z,14.80
2024-03-15T18:47:14.632Z,16.00
2024-03-15T18:49:42.197Z,18.05
2024-03-15T18:52:11.250Z,13.35
2024-03-15T18:54:38.126Z,18.80
2024-03-15T18:57:07.263Z,13.95
2024-03-15T18:59:37.889Z,15.20
2024-03-15T19:02:06.506Z,14.07
2024-03-15T19:04:33.827Z,12.98
2024-03-15T19:07:01.470Z,14.52
2024-03-15T19:09:28.526Z,19.65
2024-03-15T19:11:55.480Z,39.95
2024-03-15T19:14:24.096Z,37.72
2024-03-15T19:16:53.970Z,38.80
2024-03-15T19:19:22.312Z,54.70
2024-03-15T19:21:51.158Z,55.55
2024-03-15T19:24:20.452Z,59.60
2024-03-15T19:26:50.712Z,53.28
2024-03-15T19:29:18.670Z,54.63
2024-03-15T19:31:47.990Z,56.13
2024-03-15T19:34:17.361Z,57.65
2024-03-15T19:36:46.694Z,64.25
2024-03-15T19:39:16.397Z,70.43
2024-03-15T19:41:44.834Z,63.70
2024-03-15T19:44:24.066Z,61.70
2024-03-15T19:46:52.083Z,66.78
2024-03-15T19:49:22.109Z,70.90
2024-03-15T19:52:00.855Z,61.92
2024-03-15T19:54:32.504Z,66.32
2024-03-15T19:57:05.604Z,65.63
2024-03-15T19:59:33.334Z,70.40
2024-03-15T20:02:06.088Z,65.75
2024-03-15T20:04:34.627Z,77.97
2024-03-15T20:07:05.237Z,74.07
2024-03-15T20:09:33.804Z,76.40
2024-03-15T20:12:03.390Z,71.53
2024-03-15T20:14:39.971Z,72.80
2024-03-15T20:17:10.415Z,75.85
2024-03-15T20:19:39.511Z,72.00
2024-03-15T20:22:11.681Z,75.78
2024-03-15T20:24:44.676Z,78.13
2024-03-15T20:29:45.939Z,75.38
2024-03-15T20:32:21.067Z,80.55
2024-03-15T20:34:55.983Z,78.90
2024-03-15T20:37:31.278Z,82.88
2024-03-15T20:40:12.591Z,83.18
2024-03-15T20:42:42.708Z,84.05
2024-03-15T20:45:12.343Z,75.90
2024-03-15T20:47:42.444Z,78.65
2024-03-15T20:50:14.004Z,81.07
2024-03-15T20:52:49.241Z,78.55
2024-03-15T20:55:18.425Z,88.47
2024-03-15T20:57:47.718Z,82.13
2024-03-15T21:00:30.385Z,81.50
2024-03-15T21:03:00.441Z,80.35
2024-03-15T21:05:46.171Z,79.25
2024-03-15T21:10:57.035Z,78.93
2024-03-15T21:13:31.148Z,82.47
2024-03-15T21:16:01.977Z,85.97
2024-03-15T21:18:32.752Z,86.43
2024-03-15T21:21:09.863Z,80.70
2024-03-15T21:23:45.400Z,79.63
2024-03-15T21:26:22.576Z,76.25
2024-03-15T21:28:50.870Z,76.25
2024-03-15T21:31:24.077Z,80.18
2024-03-15T21:33:57.495Z,80.65
2024-03-15T21:36:28.774Z,76.80
2024-03-15T21:38:57.096Z,82.32
2024-03-15T21:41:27.873Z,75.45
2024-03-15T21:43:55.541Z,74.97
2024-03-15T21:46:41.169Z,73.80
2024-03-15T21:49:14.934Z,71.65
2024-03-15T21:51:44.859Z,75.32
2024-03-15T21:54:16.383Z,77.90
2024-03-15T21:56:47.444Z,75.90
2024-03-15T21:59:22.922Z,72.80
2024-03-15T22:01:52.184Z,79.07
2024-03-15T22:04:30.835Z,78.13
2024-03-15T22:07:02.592Z,71.43
2024-03-15T22:09:33.421Z,73.05
2024-03-15T22:12:03.130Z,72.53
2024-03-15T22:14:32.182Z,71.45
2024-03-15T22:17:03.064Z,67.30
2024-03-15T22:19:35.977Z,64.97
2024-03-15T22:22:07.893Z,72.55
2024-03-15T22:24:38.804Z,70.30
2024-03-15T22:27:11.403Z,70.65
2024-03-15T22:29:39.713Z,70.97
2024-03-15T22:32:10.623Z,69.03
2024-03-15T22:34:40.789Z,68.28
2024-03-15T22:37:11.698Z,64.13
2024-03-15T22:39:42.574Z,67.07
2024-03-15T22:42:12.476Z,66.82
2024-03-15T22:44:47.984Z,72.55
2024-03-15T22:47:19.018Z,70.53
2024-03-15T22:49:48.224Z,69.90
2024-03-15T22:52:18.321Z,67.20
2024-03-15T22:54:47.643Z,71.95
2024-03-15T22:57:16.576Z,65.57
2024-03-15T22:59:46.359Z,57.05
2024-03-15T23:02:17.228Z,50.28
2024-03-15T23:04:46.912Z,49.22
2024-03-15T23:07:15.872Z,46.58
2024-03-15T23:09:45.253Z,44.40
2024-03-15T23:12:14.085Z,41.97
2024-03-15T23:14:43.136Z,38.40
2024-03-15T23:17:12.599Z,38.15
2024-03-15T23:19:42.180Z,38.90
2024-03-15T23:22:11.049Z,35.95
2024-03-15T23:24:40.516Z,36.63
2024-03-15T23:27:09.160Z,34.85
2024-03-15T23:29:40.218Z,31.15
2024-03-15T23:32:08.205Z,31.23
2024-03-15T23:34:40.260Z,30.33
2024-03-15T23:37:09.063Z,27.77
2024-03-15T23:39:37.427Z,30.42
2024-03-15T23:42:09.321Z,32.72
2024-03-15T23:44:42.078Z,30.85
2024-03-15T23:47:12.729Z,29.88
2024-03-15T23:49:39.923Z,30.58
2024-03-15T23:52:10.407Z,29.63
2024-03-15T23:54:39.406Z,29.60
2024-03-15T23:57:08.169Z,27.40
2024-03-15T23:59:38.487Z,28.13
